Santa Cecilia, Brazil
Current Conditions -  °F | °C
As of 10:00 AM on Thursday 29 Jan 2015 (Local Time) from SBNF Reporting Station
Few Clouds Few Clouds  
Wind Chill: 84°   Ceiling: Unl
Heat Index: 94°   Visibility: 6mi
Dew Point: 77°   Wind: 12mph
Humidity: 79%   Direction: 300°WNW
Pressure: 29.8"   Gusts: NA
Location:  26.96°S, 50.43°W
Report Text: SBNF 291200Z 30010KT 9999 FEW025 29/25 Q1009
Loading
Personal Weather Stations






























Interactive Weather Map New forecast layout! Learn more

10-Day Weather Forecast

Advertisements
Track Severe Weather on mobile